createdAt,value
2022-11-27T00:03:18.906Z,0.29
2022-11-27T00:07:22.363Z,0.29
2022-11-27T00:11:27.216Z,0.34
2022-11-27T00:15:30.684Z,0.33
2022-11-27T00:19:34.863Z,0.27
2022-11-27T00:23:37.766Z,0.24
2022-11-27T00:27:40.458Z,0.14
2022-11-27T00:31:43.257Z,-0.02
2022-11-27T00:35:47.345Z,-0.25
2022-11-27T00:39:50.078Z,-0.48
2022-11-27T00:43:53.819Z,-0.55
2022-11-27T00:47:56.472Z,-0.43
2022-11-27T00:52:00.465Z,-0.30
2022-11-27T00:56:03.264Z,-0.26
2022-11-27T01:00:07.700Z,-0.30
2022-11-27T01:04:13.516Z,-0.51
2022-11-27T01:08:19.175Z,-0.57
2022-11-27T01:12:21.800Z,-0.48
2022-11-27T01:16:26.886Z,-0.55
2022-11-27T01:20:29.635Z,-0.46
2022-11-27T01:24:33.639Z,-0.47
2022-11-27T01:28:37.011Z,-0.49
2022-11-27T01:32:39.673Z,-0.64
2022-11-27T01:36:42.446Z,-0.74
2022-11-27T01:40:46.529Z,-0.65
2022-11-27T01:44:55.262Z,-0.75
2022-11-27T01:49:06.720Z,-0.71
2022-11-27T01:53:14.739Z,-0.60
2022-11-27T01:57:21.856Z,-0.52
2022-11-27T02:01:26.135Z,-0.50
2022-11-27T02:05:30.203Z,-0.37
2022-11-27T02:09:33.314Z,-0.28
2022-11-27T02:13:42.134Z,-0.18
2022-11-27T02:17:50.783Z,-0.17
2022-11-27T02:22:00.463Z,-0.12
2022-11-27T02:26:21.286Z,-0.17
2022-11-27T02:30:25.306Z,-0.19
2022-11-27T02:34:34.910Z,-0.19
2022-11-27T02:38:42.905Z,-0.14
2022-11-27T02:42:49.080Z,-0.07
2022-11-27T02:46:55.482Z,-0.07
2022-11-27T02:50:58.313Z,-0.14
2022-11-27T02:55:06.792Z,-0.14
2022-11-27T02:59:14.732Z,-0.09
2022-11-27T03:03:22.437Z,-0.08
2022-11-27T03:07:31.367Z,-0.10
2022-11-27T03:11:34.354Z,-0.05
2022-11-27T03:15:42.635Z,-0.01
2022-11-27T03:19:53.582Z,0.05
2022-11-27T03:23:56.462Z,-0.02
2022-11-27T03:28:02.236Z,-0.02
2022-11-27T03:32:06.068Z,-0.03
2022-11-27T03:36:15.013Z,-0.04
2022-11-27T03:40:18.921Z,0.01
2022-11-27T03:44:30.874Z,-0.01
2022-11-27T03:48:37.255Z,0.09
2022-11-27T03:52:48.748Z,0.15
2022-11-27T03:56:59.038Z,0.34
2022-11-27T04:01:04.044Z,0.36
2022-11-27T04:05:07.649Z,0.39
2022-11-27T04:09:11.690Z,0.32
2022-11-27T04:13:14.941Z,0.26
2022-11-27T04:17:17.652Z,0.18
2022-11-27T04:21:20.601Z,0.22
2022-11-27T04:25:24.853Z,0.19
2022-11-27T04:29:27.527Z,0.18
2022-11-27T04:33:30.166Z,0.24
2022-11-27T04:37:32.948Z,0.28
2022-11-27T04:41:36.936Z,0.34
2022-11-27T04:45:40.004Z,0.43
2022-11-27T04:49:42.714Z,0.43
2022-11-27T04:53:45.452Z,0.56
2022-11-27T04:57:49.471Z,0.58
2022-11-27T05:01:52.147Z,0.65
2022-11-27T05:05:57.882Z,0.69
2022-11-27T05:10:00.556Z,0.74
2022-11-27T05:14:16.995Z,0.74
2022-11-27T05:18:19.759Z,0.74
2022-11-27T05:22:22.588Z,0.73
2022-11-27T05:26:25.273Z,0.66
2022-11-27T05:30:29.339Z,0.55
2022-11-27T05:34:32.040Z,0.58
2022-11-27T05:38:34.710Z,0.65
2022-11-27T05:42:37.404Z,0.65
2022-11-27T05:46:43.589Z,0.70
2022-11-27T05:50:46.388Z,0.71
2022-11-27T05:54:49.035Z,0.73
2022-11-27T05:58:52.071Z,0.73
2022-11-27T06:02:56.578Z,0.78
2022-11-27T06:06:59.378Z,0.85
2022-11-27T06:11:07.511Z,0.87
2022-11-27T06:15:10.823Z,0.91
2022-11-27T06:19:14.838Z,0.96
2022-11-27T06:23:17.628Z,1.01
2022-11-27T06:27:20.376Z,1.07
2022-11-27T06:31:25.746Z,1.03
2022-11-27T06:35:29.904Z,1.09
2022-11-27T06:39:32.690Z,1.14
2022-11-27T06:43:36.500Z,1.20
2022-11-27T06:47:39.209Z,1.20
2022-11-27T06:51:43.447Z,1.26
2022-11-27T06:55:46.177Z,1.35
2022-11-27T06:59:48.864Z,1.30
2022-11-27T07:03:51.931Z,1.33
2022-11-27T07:07:55.993Z,1.33
2022-11-27T07:11:58.772Z,1.33
2022-11-27T07:16:02.358Z,1.32
2022-11-27T07:20:06.182Z,1.36
2022-11-27T07:24:10.474Z,1.37
2022-11-27T07:28:18.568Z,1.36
2022-11-27T07:32:21.604Z,1.30
2022-11-27T07:36:25.878Z,1.39
2022-11-27T07:40:29.924Z,1.42
2022-11-27T07:44:32.624Z,1.35
2022-11-27T07:48:35.741Z,1.33
2022-11-27T07:52:42.049Z,1.33
2022-11-27T07:56:46.433Z,1.01
2022-11-27T08:00:49.266Z,1.44
2022-11-27T08:04:52.063Z,1.43
2022-11-27T08:08:56.610Z,1.35
2022-11-27T08:13:00.615Z,1.41
2022-11-27T08:17:03.365Z,1.40
2022-11-27T08:21:06.390Z,1.45
2022-11-27T08:25:10.226Z,1.50
2022-11-27T08:29:14.316Z,1.51
2022-11-27T08:33:17.039Z,1.57
2022-11-27T08:37:19.823Z,1.63
2022-11-27T08:41:23.149Z,1.66
2022-11-27T08:45:27.242Z,1.73
2022-11-27T08:49:29.991Z,1.77
2022-11-27T08:53:32.660Z,1.81
2022-11-27T08:57:36.256Z,1.91
2022-11-27T09:01:40.608Z,1.81
2022-11-27T09:05:44.864Z,1.81
2022-11-27T09:09:47.543Z,4.01
2022-11-27T09:13:50.519Z,3.17
2022-11-27T09:17:54.656Z,2.71
2022-11-27T09:21:57.785Z,2.68
2022-11-27T09:26:01.372Z,-146.68
2022-11-27T09:30:04.765Z,-146.68
2022-11-27T09:34:08.953Z,-146.68
2022-11-27T09:38:11.673Z,-146.68
2022-11-27T09:42:25.341Z,-146.68
2022-11-27T09:46:35.545Z,-146.68
2022-11-27T09:50:50.023Z,-146.68
2022-11-27T09:54:58.842Z,-146.68
2022-11-27T09:59:02.586Z,-146.68
2022-11-27T10:03:07.366Z,-146.68
2022-11-27T10:07:20.295Z,-146.68
2022-11-27T10:11:31.537Z,-146.68
2022-11-27T10:15:43.404Z,-146.68
2022-11-27T10:19:53.729Z,-146.68
2022-11-27T10:24:04.579Z,-146.68
2022-11-27T10:28:21.186Z,-146.68
2022-11-27T10:32:54.243Z,-146.68
2022-11-27T10:36:52.076Z,-146.68
2022-11-27T10:41:34.320Z,-146.68
2022-11-27T10:45:44.314Z,-146.68
2022-11-27T10:49:48.455Z,-146.68
2022-11-27T10:53:54.705Z,-146.68
2022-11-27T10:58:10.853Z,-146.68
2022-11-27T11:02:29.037Z,-146.68
2022-11-27T11:06:35.040Z,-146.68
2022-11-27T11:10:44.041Z,-146.68
2022-11-27T11:14:53.467Z,-146.68
2022-11-27T11:18:57.097Z,-146.68
2022-11-27T11:22:59.885Z,-146.68
2022-11-27T11:27:08.156Z,-146.68
2022-11-27T11:31:18.389Z,-146.68
2022-11-27T11:35:29.801Z,-146.68
2022-11-27T11:39:35.574Z,-146.68
2022-11-27T11:43:38.754Z,-146.68
2022-11-27T11:47:47.794Z,-146.68
2022-11-27T11:52:21.837Z,-146.68
2022-11-27T11:56:31.265Z,-146.68
2022-11-27T12:01:04.411Z,-146.68
2022-11-27T12:05:21.390Z,-146.68
2022-11-27T12:09:37.356Z,-146.68
2022-11-27T12:14:06.413Z,-146.68
2022-11-27T12:18:16.373Z,-146.68
2022-11-27T12:22:40.542Z,-146.68
2022-11-27T12:26:59.693Z,-146.68
2022-11-27T12:31:07.791Z,-146.68
2022-11-27T12:35:30.008Z,-146.68
2022-11-27T12:39:44.631Z,-146.68
2022-11-27T12:43:50.237Z,-146.68
2022-11-27T12:47:59.930Z,-146.68
2022-11-27T12:52:12.368Z,-146.68
2022-11-27T12:56:24.534Z,-146.68
2022-11-27T13:00:30.951Z,-146.68
2022-11-27T13:04:41.234Z,-146.68
2022-11-27T13:08:52.541Z,-146.68
2022-11-27T13:13:03.685Z,-146.68
2022-11-27T13:17:15.674Z,-146.68
2022-11-27T13:21:22.889Z,-146.68
2022-11-27T13:25:26.929Z,-146.68
2022-11-27T13:29:34.959Z,-146.68
2022-11-27T13:33:42.767Z,-146.68
2022-11-27T13:37:46.194Z,-146.68
2022-11-27T13:41:50.213Z,-146.68
2022-11-27T13:46:03.938Z,-146.68
2022-11-27T13:50:11.479Z,-146.68
2022-11-27T13:54:18.013Z,-146.68
2022-11-27T13:58:30.815Z,-146.68
2022-11-27T14:02:46.701Z,-146.68
2022-11-27T14:06:55.360Z,-146.68
2022-11-27T14:11:00.592Z,-146.68
2022-11-27T14:15:07.622Z,-146.68
2022-11-27T14:19:33.481Z,-146.68
2022-11-27T14:23:49.234Z,-146.68
2022-11-27T14:28:00.157Z,-146.68
2022-11-27T14:32:04.178Z,-146.68
2022-11-27T14:36:08.913Z,-146.68
2022-11-27T14:40:15.452Z,-146.68
2022-11-27T14:44:19.161Z,-146.68
2022-11-27T14:48:24.658Z,-146.68
2022-11-27T14:52:29.214Z,-146.68
2022-11-27T14:56:35.070Z,-146.68
2022-11-27T15:00:37.772Z,-146.68
2022-11-27T15:04:41.877Z,-146.68
2022-11-27T15:09:02.989Z,-146.68
2022-11-27T15:13:23.747Z,-146.68
2022-11-27T15:17:29.277Z,-146.68
2022-11-27T15:21:38.362Z,-146.68
2022-11-27T15:25:44.597Z,-146.68
2022-11-27T15:30:01.622Z,-146.68
2022-11-27T15:34:07.047Z,-146.68
2022-11-27T15:38:11.145Z,-146.68
2022-11-27T15:42:17.612Z,-146.68
2022-11-27T15:46:26.062Z,-146.68
2022-11-27T15:50:29.520Z,-146.68
2022-11-27T15:54:32.256Z,-146.68
2022-11-27T15:58:36.288Z,-146.68
2022-11-27T16:02:39.158Z,-146.68
2022-11-27T16:06:42.174Z,-146.68
2022-11-27T16:10:44.938Z,-146.68
2022-11-27T16:14:49.001Z,-146.68
2022-11-27T16:18:51.839Z,-146.68
2022-11-27T16:22:54.579Z,-146.68
2022-11-27T16:26:57.360Z,-146.68
2022-11-27T16:31:03.265Z,-146.68
2022-11-27T16:35:06.489Z,-146.68
2022-11-27T16:39:09.193Z,-146.68
2022-11-27T16:43:11.927Z,-146.68
2022-11-27T16:47:16.516Z,-146.68
2022-11-27T16:51:21.691Z,-146.68
2022-11-27T16:55:25.541Z,-146.68
2022-11-27T16:59:28.256Z,-146.68
2022-11-27T17:03:32.508Z,-146.68
2022-11-27T17:07:35.546Z,-146.68
2022-11-27T17:11:41.951Z,-146.68
2022-11-27T17:15:44.714Z,-146.68
2022-11-27T17:19:49.272Z,-146.68
2022-11-27T17:23:53.032Z,-146.68
2022-11-27T17:27:55.729Z,-146.68
2022-11-27T17:31:58.593Z,-146.68
2022-11-27T17:36:02.770Z,-146.68
2022-11-27T17:40:06.606Z,-146.68
2022-11-27T17:44:09.513Z,-146.68
2022-11-27T17:48:12.176Z,-146.68
2022-11-27T17:52:16.208Z,-146.68
2022-11-27T17:56:20.741Z,-146.68
2022-11-27T18:00:23.508Z,-146.68
2022-11-27T18:04:30.711Z,-146.68
2022-11-27T18:08:34.812Z,-146.68
2022-11-27T18:12:37.547Z,-146.68
2022-11-27T18:16:40.628Z,-146.68
2022-11-27T18:20:43.412Z,-146.68
2022-11-27T18:24:47.484Z,-146.68
2022-11-27T18:28:54.616Z,-146.68
2022-11-27T18:32:57.319Z,-146.68
2022-11-27T18:37:00.924Z,-146.68
2022-11-27T18:41:10.376Z,-146.68
2022-11-27T18:45:31.901Z,-146.68
2022-11-27T18:49:35.881Z,-146.68
2022-11-27T18:53:38.735Z,-146.68
2022-11-27T18:57:42.959Z,-146.68
2022-11-27T19:01:45.791Z,-146.68
2022-11-27T19:05:48.474Z,-146.68
2022-11-27T19:09:51.140Z,-146.68
2022-11-27T19:13:57.065Z,-146.68
2022-11-27T19:17:59.805Z,-146.68
2022-11-27T19:22:02.750Z,-146.68
2022-11-27T19:26:06.721Z,-146.68
2022-11-27T19:30:12.003Z,-146.68
2022-11-27T19:34:14.692Z,-146.68
2022-11-27T19:38:17.589Z,-146.68
2022-11-27T19:42:20.246Z,-146.68
2022-11-27T19:46:26.464Z,-146.68
2022-11-27T19:50:29.292Z,-146.68
2022-11-27T19:54:32.075Z,-146.68
2022-11-27T19:58:35.362Z,-146.68
2022-11-27T20:02:40.166Z,-146.68
2022-11-27T20:06:43.258Z,-146.68
2022-11-27T20:10:50.242Z,-146.68
2022-11-27T20:14:52.986Z,-146.68
2022-11-27T20:18:57.158Z,-146.68
2022-11-27T20:22:59.820Z,-146.68
2022-11-27T20:27:02.515Z,-146.68
2022-11-27T20:31:05.647Z,-146.68
2022-11-27T20:35:10.400Z,-146.68
2022-11-27T20:39:19.277Z,-146.68
2022-11-27T20:43:24.001Z,-146.68
2022-11-27T20:47:26.740Z,-146.68
2022-11-27T20:51:33.857Z,-146.68
2022-11-27T20:55:36.754Z,-146.68
2022-11-27T20:59:39.767Z,-146.68
2022-11-27T21:03:42.778Z,-146.68
2022-11-27T21:07:47.188Z,-146.68
2022-11-27T21:11:50.006Z,-146.68
2022-11-27T21:15:53.319Z,-146.68
2022-11-27T21:19:56.161Z,-146.68
2022-11-27T21:24:00.741Z,-146.68
2022-11-27T21:28:03.553Z,-146.68
2022-11-27T21:32:06.692Z,-146.68
2022-11-27T21:36:09.522Z,-146.68
2022-11-27T21:40:14.589Z,-146.68
2022-11-27T21:44:18.060Z,-146.68
2022-11-27T21:48:20.823Z,-146.68
2022-11-27T21:52:23.488Z,-146.68
2022-11-27T21:56:29.604Z,-146.68
2022-11-27T22:00:32.340Z,-146.68
2022-11-27T22:04:35.070Z,-146.68
2022-11-27T22:08:37.787Z,-146.68
2022-11-27T22:12:41.852Z,-146.68
2022-11-27T22:16:46.952Z,-146.68
2022-11-27T22:20:50.104Z,-146.68
2022-11-27T22:24:52.914Z,-146.68
2022-11-27T22:28:58.754Z,-146.68
2022-11-27T22:33:01.424Z,-146.68
2022-11-27T22:37:05.960Z,-146.68
2022-11-27T22:41:09.448Z,-146.68
2022-11-27T22:45:13.552Z,-146.68
2022-11-27T22:49:18.531Z,-146.68
2022-11-27T22:53:21.187Z,-146.68
2022-11-27T22:57:23.884Z,-146.68
2022-11-27T23:01:28.037Z,-146.68
2022-11-27T23:05:30.754Z,-146.68
2022-11-27T23:09:33.826Z,-146.68
2022-11-27T23:13:37.742Z,-146.68
2022-11-27T23:17:41.818Z,-146.68
2022-11-27T23:21:44.735Z,-146.68
2022-11-27T23:25:47.496Z,-146.68
2022-11-27T23:29:50.180Z,-146.68
2022-11-27T23:33:55.271Z,-146.68
2022-11-27T23:37:58.927Z,-146.68
2022-11-27T23:42:01.632Z,-146.68
2022-11-27T23:46:04.804Z,-146.68
2022-11-27T23:50:09.855Z,-146.68
2022-11-27T23:54:13.021Z,-146.68
2022-11-27T23:58:15.693Z,-146.68
